This is the latest recevied weather packets stored in our database for station/object N8TWM-13. If no packets are shown the sender has not sent any weather packets the latest 1 day(s).
| Time | Temp. | Humidity | Pressure | Rain* | Wind** | Luminosity | Snow |
|---|---|---|---|---|---|---|---|
| 1778017804 | 15° C | 92% | 1008.1 hPa | 18.54 mm | 0 m/s | 8 W/m² | - |
| 1778017502 | 15° C | 92% | 1007.9 hPa | 3.05 mm | 0 m/s | 4 W/m² | - |
| 1778017198 | 15° C | 92% | 1007.7 hPa | 0 mm | 0 m/s | 17 W/m² | - |
| 1778016896 | 15° C | 91% | 1007.4 hPa | 0 mm | 0 m/s | 39 W/m² | - |
| 1778016592 | 15.56° C | 91% | 1007.3 hPa | 0 mm | 0 m/s | 60 W/m² | - |
| 1778016289 | 15.56° C | 91% | 1007.7 hPa | 0 mm | 0 m/s | 40 W/m² | - |
| 1778015985 | 15.56° C | 91% | 1007.4 hPa | 0 mm | 0 m/s | 83 W/m² | - |
| 1778015683 | 15° C | 91% | 1007.5 hPa | 0 mm | 0 m/s | 80 W/m² | - |
| 1778015379 | 15° C | 92% | 1007.6 hPa | 0 mm | 0 m/s | 97 W/m² | - |
| 1778015077 | 15° C | 92% | 1007.8 hPa | 0 mm | 0 m/s | 85 W/m² | - |
| 1778014773 | 15° C | 92% | 1007.7 hPa | 0 mm | 0 m/s | 131 W/m² | - |
| 1778014472 | 15° C | 92% | 1007.7 hPa | 0 mm | 0 m/s | 118 W/m² | - |
| 1778014168 | 15° C | 92% | 1007.8 hPa | 0 mm | 0 m/s | 135 W/m² | - |
| 1778013866 | 15° C | 92% | 1008 hPa | 0 mm | 0 m/s | 74 W/m² | - |
| 1778013563 | 15° C | 92% | 1008 hPa | 0 mm | 0 m/s | 71 W/m² | - |
| 1778013259 | 15° C | 92% | 1007.8 hPa | 0 mm | 0 m/s | 136 W/m² | - |
| 1778012956 | 15° C | 92% | 1008 hPa | 0 mm | 0 m/s | 67 W/m² | - |
| 1778012652 | 14.44° C | 92% | 1007.9 hPa | 0 mm | 0 m/s | 88 W/m² | - |
| 1778012349 | 14.44° C | 92% | 1008 hPa | 1.27 mm | 0 m/s | 91 W/m² | - |
| 1778012046 | 14.44° C | 92% | 1008.1 hPa | 4.83 mm | 0 m/s | 68 W/m² | - |
| 1778011744 | 14.44° C | 91% | 1008.3 hPa | 3.56 mm | 0 m/s | 82 W/m² | - |
| 1778011441 | 14.44° C | 91% | 1008.3 hPa | 0 mm | 0 m/s | 32 W/m² | - |
| 1778011136 | 15° C | 91% | 1008.5 hPa | 1.27 mm | 0 m/s | 26 W/m² | - |
| 1778010834 | 15° C | 91% | 1008.3 hPa | 1.27 mm | 0 m/s | 45 W/m² | - |
| 1778010531 | 15° C | 90% | 1008.3 hPa | 0 mm | 0 m/s | 41 W/m² | - |
* Rain latest hour (hover to see other rain measurements)
** Current wind speed in m/s (hover to see current wind gust speed)